Time;durP1;ratioP1;P1;durP2;ratioP2;P2;SDS_P1;SDS_P2;PMS_P1;PMS_P2;Temp;Humidity;BMP_temperature;BMP_pressure;BME280_temperature;BME280_humidity;BME280_pressure;Samples;Min_cycle;Max_cycle;Signal;HPM_P1;HPM_P2
2023/02/24 00:00:30;;;;;;;15.18;3.17;;;;;;;1.50;100.00;101441.31;5129319;27;20043;-47
2023/02/24 00:03:04;;;;;;;16.60;3.22;;;;;;;1.45;100.00;101437.97;5132481;28;20047;-48
2023/02/24 00:05:34;;;;;;;10.38;3.05;;;;;;;1.45;100.00;101436.22;5127605;27;20043;-47
2023/02/24 00:08:02;;;;;;;14.45;3.10;;;;;;;1.39;100.00;101427.69;5130102;27;20035;-48
2023/02/24 00:10:32;;;;;;;14.98;4.70;;;;;;;1.34;100.00;101436.41;5132446;27;20067;-49
2023/02/24 00:13:00;;;;;;;13.68;3.03;;;;;;;1.36;100.00;101438.97;5134595;27;20055;-48
2023/02/24 00:15:29;;;;;;;12.70;2.97;;;;;;;1.33;100.00;101439.03;5133319;27;20054;-50
2023/02/24 00:18:05;;;;;;;14.82;3.08;;;;;;;1.28;100.00;101438.25;5133505;27;20043;-51
2023/02/24 00:20:35;;;;;;;15.27;3.05;;;;;;;1.25;100.00;101433.13;5131167;27;20051;-48
2023/02/24 00:23:03;;;;;;;12.00;3.42;;;;;;;1.20;100.00;101435.81;5134326;27;20490;-47
2023/02/24 00:25:33;;;;;;;14.85;3.95;;;;;;;1.13;100.00;101436.75;5134151;27;20051;-47
2023/02/24 00:28:01;;;;;;;14.13;3.53;;;;;;;1.12;100.00;101428.13;5135646;27;20043;-50
2023/02/24 00:30:31;;;;;;;19.27;4.25;;;;;;;1.06;100.00;101420.44;5133167;27;20454;-48
2023/02/24 00:33:02;;;;;;;14.90;3.90;;;;;;;1.08;100.00;101423.88;5133728;27;20104;-50
2023/02/24 00:35:30;;;;;;;15.18;4.40;;;;;;;1.00;100.00;101425.75;5132852;27;20133;-47
2023/02/24 00:37:58;;;;;;;12.65;3.75;;;;;;;1.01;100.00;101422.28;5135007;27;20130;-52
2023/02/24 00:40:29;;;;;;;17.17;4.57;;;;;;;1.01;100.00;101419.69;5133364;27;20058;-49
2023/02/24 00:42:58;;;;;;;14.05;4.20;;;;;;;0.92;100.00;101417.25;5133608;27;20442;-50
2023/02/24 00:45:29;;;;;;;17.98;4.45;;;;;;;0.92;100.00;101417.25;5133174;27;20043;-50
2023/02/24 00:47:58;;;;;;;18.27;3.80;;;;;;;0.87;100.00;101409.53;5133588;27;20127;-51
2023/02/24 00:50:26;;;;;;;16.90;3.88;;;;;;;0.88;100.00;101407.81;5131031;27;20043;-52
2023/02/24 00:52:54;;;;;;;13.93;4.07;;;;;;;0.84;100.00;101410.44;5133487;27;20054;-49
2023/02/24 00:55:22;;;;;;;12.27;3.92;;;;;;;0.87;100.00;101398.31;5133158;27;20439;-51
2023/02/24 00:57:53;;;;;;;18.45;4.05;;;;;;;0.78;100.00;101400.19;5133672;27;20039;-53
2023/02/24 01:00:24;;;;;;;16.25;4.38;;;;;;;0.86;100.00;101391.44;5132903;27;20075;-48
2023/02/24 01:02:52;;;;;;;18.63;4.57;;;;;;;0.84;100.00;101387.13;5132604;27;20054;-48
2023/02/24 01:05:20;;;;;;;15.00;4.10;;;;;;;0.72;100.00;101384.72;5130890;27;20058;-49
2023/02/24 01:07:48;;;;;;;17.45;3.72;;;;;;;0.73;100.00;101385.59;5132655;27;20051;-50
2023/02/24 01:10:17;;;;;;;11.40;3.45;;;;;;;0.72;100.00;101382.13;5132740;27;20070;-48
2023/02/24 01:12:53;;;;;;;16.65;3.53;;;;;;;0.55;100.00;101386.75;5132757;27;20079;-46
2023/02/24 01:15:23;;;;;;;15.43;3.97;;;;;;;0.52;100.00;101386.75;5132887;27;20071;-46
2023/02/24 01:17:51;;;;;;;11.20;3.30;;;;;;;0.52;100.00;101376.41;5132963;27;20511;-47
2023/02/24 01:20:19;;;;;;;13.95;4.40;;;;;;;0.46;100.00;101375.66;5130205;27;20387;-46
2023/02/24 01:22:49;;;;;;;16.60;4.20;;;;;;;0.48;100.00;101371.28;5132109;27;20050;-50
2023/02/24 01:25:19;;;;;;;14.25;3.85;;;;;;;0.49;100.00;101369.53;5133595;27;20123;-47
2023/02/24 01:27:47;;;;;;;14.43;3.72;;;;;;;0.50;100.00;101359.19;5135573;27;20130;-49
2023/02/24 01:30:17;;;;;;;16.23;4.00;;;;;;;0.46;100.00;101354.94;5132774;27;20497;-49
2023/02/24 01:32:47;;;;;;;13.85;3.50;;;;;;;0.39;100.00;101363.66;5132191;27;20079;-48
2023/02/24 01:35:16;;;;;;;11.23;4.65;;;;;;;0.33;100.00;101345.63;5135103;27;20043;-48
2023/02/24 01:37:45;;;;;;;15.75;3.97;;;;;;;0.34;100.00;101342.16;5131003;27;20067;-52
2023/02/24 01:40:19;;;;;;;22.30;4.63;;;;;;;0.37;100.00;101334.38;5133433;27;20047;-48
2023/02/24 01:42:49;;;;;;;21.83;4.40;;;;;;;0.28;100.00;101332.75;5132133;27;20179;-49
2023/02/24 01:45:23;;;;;;;19.20;5.85;;;;;;;0.27;100.00;101328.47;5131919;27;20043;-46
2023/02/24 01:47:57;;;;;;;18.50;5.40;;;;;;;0.22;100.00;101325.09;5132172;27;20565;-47
2023/02/24 01:50:29;;;;;;;21.15;5.30;;;;;;;0.21;100.00;101317.34;5131235;27;20043;-47
2023/02/24 01:53:00;;;;;;;20.23;5.72;;;;;;;0.22;100.00;101316.47;5135542;27;20126;-50
2023/02/24 01:55:33;;;;;;;22.45;5.75;;;;;;;0.27;100.00;101317.25;5132535;27;20558;-47
2023/02/24 01:58:06;;;;;;;15.07;5.00;;;;;;;0.23;100.00;101313.00;5132397;27;20126;-48
2023/02/24 02:00:43;;;;;;;17.90;5.38;;;;;;;0.26;100.00;101310.34;5135326;27;20108;-50
2023/02/24 02:03:19;;;;;;;13.23;5.00;;;;;;;0.28;100.00;101290.50;5135298;27;20393;-48
2023/02/24 02:05:50;;;;;;;19.88;6.47;;;;;;;0.21;100.00;101288.91;5130678;27;20039;-47
2023/02/24 02:08:22;;;;;;;13.57;4.75;;;;;;;0.13;100.00;101281.25;5131880;27;20047;-48
2023/02/24 02:10:57;;;;;;;13.52;4.93;;;;;;;0.20;100.00;101274.25;5131421;27;20054;-48
2023/02/24 02:13:28;;;;;;;14.25;5.53;;;;;;;0.15;100.00;101274.28;5131623;27;20039;-50
2023/02/24 02:16:07;;;;;;;15.15;5.10;;;;;;;0.11;100.00;101273.50;5131889;27;20494;-50
2023/02/24 02:18:47;;;;;;;14.52;5.00;;;;;;;0.04;100.00;101269.31;5131739;27;20082;-51
2023/02/24 02:22:01;;;;;;;18.30;5.15;;;;;;;0.05;100.00;101270.16;5130223;27;20050;-47
2023/02/24 02:24:50;;;;;;;16.02;4.85;;;;;;;0.03;100.00;101265.00;5129677;27;20111;-47
2023/02/24 02:28:05;;;;;;;13.57;4.90;;;;;;;-0.03;100.00;101262.50;5130157;27;20059;-47
2023/02/24 02:31:24;;;;;;;17.10;4.85;;;;;;;0.01;100.00;101256.41;5106116;27;20108;-48
2023/02/24 02:34:26;;;;;;;14.75;4.90;;;;;;;-0.10;100.00;101259.13;5097572;27;20055;-47
2023/02/24 02:37:04;;;;;;;12.32;4.63;;;;;;;-0.04;100.00;101247.84;5131514;27;20073;-46
2023/02/24 02:39:42;;;;;;;13.95;4.82;;;;;;;-0.08;100.00;101249.66;5131315;27;20055;-51
2023/02/24 02:42:25;;;;;;;13.88;4.65;;;;;;;-0.07;100.00;101247.91;5130021;27;20100;-48
2023/02/24 02:44:57;;;;;;;;;;;;;;;-0.18;100.00;101237.72;5131130;27;20067;-49
2023/02/24 02:47:33;;;;;;;14.57;4.80;;;;;;;-0.19;100.00;101234.28;5131064;27;20008;-48
2023/02/24 02:50:17;;;;;;;15.50;4.55;;;;;;;-0.22;100.00;101229.16;5129633;27;20821;-50
2023/02/24 02:52:53;;;;;;;13.20;4.85;;;;;;;-0.21;100.00;101225.69;5133783;27;20047;-48
2023/02/24 02:55:29;;;;;;;11.75;3.95;;;;;;;-0.29;100.00;101218.91;5133154;27;20138;-48
2023/02/24 02:58:00;;;;;;;13.75;4.65;;;;;;;-0.26;100.00;101219.75;5130954;27;20045;-49
2023/02/24 03:00:34;;;;;;;18.63;5.63;;;;;;;-0.27;100.00;101210.28;5133543;27;20031;-47
2023/02/24 03:03:07;;;;;;;14.32;4.03;;;;;;;-0.29;100.00;101214.59;5130979;27;20051;-48
2023/02/24 03:05:45;;;;;;;16.10;4.93;;;;;;;-0.35;100.00;101206.94;5128899;27;20047;-47
2023/02/24 03:08:17;;;;;;;15.63;4.78;;;;;;;-0.33;100.00;101201.75;5132019;27;20406;-49
2023/02/24 03:10:49;;;;;;;15.00;4.72;;;;;;;-0.37;100.00;101200.91;5130508;27;20130;-47
2023/02/24 03:13:21;;;;;;;13.32;4.38;;;;;;;-0.36;100.00;101197.47;5131003;27;20046;-50
2023/02/24 03:15:51;;;;;;;14.27;4.77;;;;;;;-0.42;100.00;101195.81;5130878;27;20051;-51
2023/02/24 03:18:27;;;;;;;16.40;4.43;;;;;;;-0.49;100.00;101194.22;5131114;27;20366;-50
2023/02/24 03:21:06;;;;;;;12.25;4.50;;;;;;;-0.41;100.00;101191.50;5129029;27;20427;-48
2023/02/24 03:23:38;;;;;;;11.45;3.83;;;;;;;-0.46;100.00;101188.13;5130385;27;20423;-50
2023/02/24 03:26:17;;;;;;;15.30;3.92;;;;;;;-0.53;100.00;101184.78;5130785;27;20482;-47
2023/02/24 03:28:58;;;;;;;18.88;5.45;;;;;;;-0.56;100.00;101182.22;5130430;27;20075;-49
2023/02/24 03:31:30;;;;;;;20.95;6.15;;;;;;;-0.55;100.00;101179.63;5130119;27;20043;-50
2023/02/24 03:34:04;;;;;;;23.35;6.18;;;;;;;-0.56;100.00;101172.78;5130987;27;20034;-50
2023/02/24 03:36:34;;;;;;;13.10;4.93;;;;;;;-0.55;100.00;101171.88;5132532;27;20057;-49
2023/02/24 03:39:04;;;;;;;13.57;4.20;;;;;;;-0.58;100.00;101174.50;5130113;27;20112;-51
2023/02/24 03:41:38;;;;;;;16.58;4.50;;;;;;;-0.53;100.00;101172.72;5132587;27;20039;-48
2023/02/24 03:44:09;;;;;;;14.85;5.07;;;;;;;-0.58;100.00;101168.50;5129698;27;20107;-48
2023/02/24 03:46:41;;;;;;;16.70;3.83;;;;;;;-0.57;100.00;101168.47;5129698;27;20058;-47
2023/02/24 03:49:12;;;;;;;14.63;4.03;;;;;;;-0.57;100.00;101163.28;5130535;27;20081;-47
2023/02/24 03:51:47;;;;;;;14.27;4.07;;;;;;;-0.58;100.00;101159.00;5128954;27;20039;-46
2023/02/24 03:54:29;;;;;;;13.40;4.30;;;;;;;-0.57;100.00;101159.88;5132712;27;20417;-50
2023/02/24 03:57:13;;;;;;;14.43;3.80;;;;;;;-0.57;100.00;101159.88;5133842;28;20039;-50
2023/02/24 03:59:51;;;;;;;10.60;3.80;;;;;;;-0.62;100.00;101147.00;5133300;28;20047;-49
2023/02/24 04:02:23;;;;;;;11.73;3.50;;;;;;;-0.59;100.00;101148.69;5130942;28;20125;-49
2023/02/24 04:04:58;;;;;;;15.27;3.67;;;;;;;-0.59;100.00;101146.94;5128623;27;20047;-49
2023/02/24 04:07:40;;;;;;;10.65;3.15;;;;;;;-0.62;100.00;101147.00;5132938;27;20043;-48
2023/02/24 04:10:14;;;;;;;16.23;3.45;;;;;;;-0.61;100.00;101148.72;5130133;27;20051;-50
2023/02/24 04:12:46;;;;;;;11.90;3.38;;;;;;;-0.60;100.00;101157.31;5130333;27;20058;-49
2023/02/24 04:15:22;;;;;;;12.27;3.50;;;;;;;-0.61;100.00;101148.72;5129606;27;20062;-51
2023/02/24 04:17:56;;;;;;;16.15;3.70;;;;;;;-0.60;100.00;101139.22;5130313;28;20039;-50
2023/02/24 04:20:28;;;;;;;11.07;3.58;;;;;;;-0.64;100.00;101142.72;5127721;27;20120;-49
2023/02/24 04:23:03;;;;;;;14.25;3.50;;;;;;;-0.65;100.00;101141.03;5130074;27;20059;-50
2023/02/24 04:25:32;;;;;;;15.77;3.92;;;;;;;-0.70;100.00;101134.19;5132135;28;20035;-48
2023/02/24 04:28:02;;;;;;;12.20;4.25;;;;;;;-0.66;100.00;101137.59;5130044;28;20650;-51
2023/02/24 04:30:36;;;;;;;15.80;4.75;;;;;;;-0.68;100.00;101137.59;5130141;28;20051;-51
2023/02/24 04:33:04;;;;;;;18.77;4.05;;;;;;;-0.69;100.00;101128.13;5131611;28;20047;-50
2023/02/24 04:35:33;;;;;;;21.70;4.63;;;;;;;-0.66;100.00;101113.50;5127527;27;20076;-49
2023/02/24 04:38:02;;;;;;;14.00;4.68;;;;;;;-0.64;100.00;101112.59;5129878;27;20057;-51
2023/02/24 04:40:30;;;;;;;16.40;5.45;;;;;;;-0.60;100.00;101111.69;5129376;28;20043;-51
2023/02/24 04:42:59;;;;;;;15.70;4.35;;;;;;;-0.58;100.00;101114.22;5130849;27;20043;-48
2023/02/24 04:45:29;;;;;;;18.48;4.20;;;;;;;-0.55;100.00;101106.44;5133086;27;20047;-51
2023/02/24 04:48:00;;;;;;;19.05;5.22;;;;;;;-0.53;100.00;101102.94;5131500;27;20047;-50
2023/02/24 04:50:31;;;;;;;19.65;5.55;;;;;;;-0.52;100.00;101102.09;5127832;27;20039;-53
2023/02/24 04:53:05;;;;;;;18.25;4.90;;;;;;;-0.53;100.00;101087.44;5127986;27;20055;-50
2023/02/24 04:55:38;;;;;;;14.65;4.55;;;;;;;-0.52;100.00;101080.53;5129657;27;20051;-51
2023/02/24 04:58:07;;;;;;;;;;;;;;;-0.48;100.00;101077.03;5134135;27;20051;-52
2023/02/24 05:00:35;;;;;;;20.90;4.80;;;;;;;-0.47;100.00;101083.06;5132355;27;19965;-48
2023/02/24 05:03:05;;;;;;;16.08;4.85;;;;;;;-0.42;100.00;101081.28;5133336;27;20103;-50
2023/02/24 05:05:33;;;;;;;17.05;5.22;;;;;;;-0.44;100.00;101072.66;5130820;27;20039;-47
2023/02/24 05:08:06;;;;;;;16.02;4.60;;;;;;;-0.43;100.00;101067.47;5132871;27;20043;-47
2023/02/24 05:10:38;;;;;;;16.23;4.57;;;;;;;-0.40;100.00;101069.16;5132218;27;20071;-51
2023/02/24 05:13:07;;;;;;;15.20;5.05;;;;;;;-0.44;100.00;101068.34;5133133;27;20543;-47
2023/02/24 05:15:40;;;;;;;17.73;5.30;;;;;;;-0.41;100.00;101059.69;5132349;27;20047;-46
2023/02/24 05:18:12;;;;;;;16.88;5.35;;;;;;;-0.37;100.00;101057.06;5133472;27;20107;-47
2023/02/24 05:23:32;;;;;;;18.05;4.57;;;;;;;-0.32;100.00;101041.47;5136553;27;19966;-47
2023/02/24 05:26:03;;;;;;;19.83;4.80;;;;;;;-0.28;100.00;101030.19;5133461;27;20051;-49
2023/02/24 05:28:31;;;;;;;12.88;4.88;;;;;;;-0.28;100.00;101030.19;5132932;27;20054;-48
2023/02/24 05:31:07;;;;;;;15.07;5.32;;;;;;;-0.25;100.00;101032.72;5134898;27;20066;-46
2023/02/24 05:33:36;;;;;;;18.73;4.75;;;;;;;-0.25;100.00;101024.94;5132492;27;20039;-46
2023/02/24 05:36:07;;;;;;;14.50;5.28;;;;;;;-0.21;100.00;101011.09;5132974;27;20486;-46
2023/02/24 05:38:37;;;;;;;14.77;4.82;;;;;;;-0.17;100.00;101009.31;5136161;27;20044;-46
2023/02/24 05:41:07;;;;;;;17.10;5.35;;;;;;;-0.15;100.00;101002.41;5132767;27;20088;-49
2023/02/24 05:43:38;;;;;;;15.75;4.72;;;;;;;-0.10;100.00;100997.97;5132633;27;20066;-50
2023/02/24 05:46:06;;;;;;;13.98;4.00;;;;;;;-0.09;100.00;100998.84;5132313;27;20077;-48
2023/02/24 05:48:34;;;;;;;19.50;5.47;;;;;;;-0.07;100.00;100989.31;5132162;27;20097;-48
2023/02/24 05:51:06;;;;;;;13.27;4.97;;;;;;;-0.06;100.00;100985.84;5129328;27;20064;-48
2023/02/24 05:53:41;;;;;;;15.27;4.15;;;;;;;0.01;100.00;100986.59;5132006;27;20389;-51
2023/02/24 05:56:09;;;;;;;15.15;5.22;;;;;;;0.00;100.00;100980.59;5133562;27;20047;-51
2023/02/24 05:58:38;;;;;;;12.95;4.32;;;;;;;0.03;100.00;100970.16;5135493;27;20088;-50
2023/02/24 06:01:14;;;;;;;17.08;4.25;;;;;;;0.02;100.00;100970.19;5133202;27;20084;-50
2023/02/24 06:03:46;;;;;;;12.25;3.60;;;;;;;0.04;100.00;100960.66;5131753;27;20042;-50
2023/02/24 06:06:15;;;;;;;14.07;4.45;;;;;;;0.05;100.00;100963.22;5135420;27;20524;-50
2023/02/24 06:08:49;;;;;;;13.45;4.05;;;;;;;0.07;100.00;100952.84;5135115;27;20043;-50
2023/02/24 06:11:19;;;;;;;10.52;3.70;;;;;;;0.07;100.00;100951.13;5135464;27;20043;-49
2023/02/24 06:13:48;;;;;;;17.05;3.83;;;;;;;0.08;100.00;100942.50;5135503;27;20051;-52
2023/02/24 06:16:17;;;;;;;12.50;3.90;;;;;;;0.10;100.00;100945.88;5134769;27;20051;-51
2023/02/24 06:18:49;;;;;;;11.55;4.18;;;;;;;0.11;100.00;100936.38;5131767;27;20039;-48
2023/02/24 06:21:20;;;;;;;11.60;3.72;;;;;;;0.15;100.00;100936.31;5131025;27;20032;-49
2023/02/24 06:23:50;;;;;;;13.95;3.90;;;;;;;0.16;100.00;100940.59;5135011;27;20170;-48
2023/02/24 06:26:20;;;;;;;13.43;4.35;;;;;;;0.19;100.00;100931.06;5134775;27;20096;-49
2023/02/24 06:28:48;;;;;;;13.60;3.63;;;;;;;0.23;100.00;100932.69;5134543;27;20383;-47
2023/02/24 06:31:16;;;;;;;11.48;4.32;;;;;;;0.27;100.00;100934.34;5131019;27;20054;-48
2023/02/24 06:33:45;;;;;;;11.75;3.72;;;;;;;0.31;100.00;100931.66;5132806;27;20421;-49
2023/02/24 06:36:14;;;;;;;16.75;4.43;;;;;;;0.33;100.00;100926.47;5133010;27;20070;-51
2023/02/24 06:38:42;;;;;;;11.07;3.95;;;;;;;0.31;100.00;100917.84;5130971;27;20057;-50
2023/02/24 06:41:12;;;;;;;12.40;4.28;;;;;;;0.32;100.00;100919.56;5131176;27;20442;-46
2023/02/24 06:43:43;;;;;;;15.07;4.35;;;;;;;0.40;100.00;100916.84;5129904;27;20071;-48
2023/02/24 06:46:13;;;;;;;12.88;4.32;;;;;;;0.40;100.00;100909.06;5130255;27;20047;-47
2023/02/24 06:48:41;;;;;;;17.02;4.55;;;;;;;0.42;100.00;100905.53;5131003;27;20413;-50
2023/02/24 06:51:12;;;;;;;13.52;4.03;;;;;;;0.45;100.00;100897.72;5129579;27;20071;-48
2023/02/24 06:53:42;;;;;;;15.48;4.10;;;;;;;0.47;100.00;100897.69;5130801;27;20051;-49
2023/02/24 06:56:14;;;;;;;19.90;4.35;;;;;;;0.52;100.00;100897.56;5134000;27;20035;-48
2023/02/24 06:58:46;;;;;;;;;;;;;;;0.53;100.00;100896.69;5131372;27;20057;-48
2023/02/24 07:01:16;;;;;;;10.07;3.45;;;;;;;0.56;100.00;100888.84;5131436;27;19927;-48
2023/02/24 07:04:02;;;;;;;13.60;4.30;;;;;;;0.60;100.00;100890.47;5134425;27;20047;-49
2023/02/24 07:06:33;;;;;;;12.50;3.78;;;;;;;0.66;100.00;100895.53;5134279;27;20517;-47
2023/02/24 07:09:05;;;;;;;14.85;4.50;;;;;;;0.68;100.00;100893.75;5133150;27;20873;-48
2023/02/24 07:11:40;;;;;;;16.90;4.75;;;;;;;0.69;100.00;100890.28;5130713;27;20078;-51
2023/02/24 07:14:10;;;;;;;13.05;4.15;;;;;;;0.74;100.00;100883.25;5131111;27;20043;-49
2023/02/24 07:16:40;;;;;;;12.05;4.00;;;;;;;0.77;100.00;100875.41;5129879;27;20517;-49
2023/02/24 07:19:12;;;;;;;13.75;3.50;;;;;;;0.82;100.00;100870.97;5130309;27;20043;-50
2023/02/24 07:21:45;;;;;;;12.18;3.60;;;;;;;0.85;100.00;100872.66;5127765;27;20055;-49
2023/02/24 07:24:23;;;;;;;14.15;3.45;;;;;;;0.90;100.00;100869.94;5130450;27;20520;-50
2023/02/24 07:26:58;;;;;;;13.38;3.55;;;;;;;0.97;100.00;100855.97;5133614;27;20043;-50
2023/02/24 07:29:27;;;;;;;10.85;3.53;;;;;;;1.00;100.00;100861.06;5130208;27;20047;-49
2023/02/24 07:32:00;;;;;;;9.30;2.70;;;;;;;1.03;100.00;100858.38;5130354;27;20134;-52
2023/02/24 07:34:29;;;;;;;14.30;3.05;;;;;;;1.04;100.00;100849.72;5128971;27;20065;-52
2023/02/24 07:37:01;;;;;;;11.25;2.90;;;;;;;1.08;100.00;100845.31;5130870;27;20864;-46
2023/02/24 07:39:29;;;;;;;10.10;2.72;;;;;;;1.09;100.00;100847.88;5132658;27;20486;-47
2023/02/24 07:41:59;;;;;;;7.93;2.45;;;;;;;1.14;100.00;100845.16;5132416;27;20150;-58
2023/02/24 07:44:28;;;;;;;10.00;2.60;;;;;;;1.18;100.00;100849.38;5132877;27;20406;-57
2023/02/24 07:46:58;;;;;;;15.60;2.83;;;;;;;1.24;100.00;100859.59;5132588;27;20180;-57
2023/02/24 07:49:28;;;;;;;14.27;2.63;;;;;;;1.23;100.00;100857.88;5132492;27;20043;-57
2023/02/24 07:51:57;;;;;;;10.20;2.78;;;;;;;1.28;100.00;100855.16;5132701;28;20659;-57
2023/02/24 07:54:28;;;;;;;11.93;2.40;;;;;;;1.30;100.00;100843.03;5131967;27;20059;-57
2023/02/24 07:56:59;;;;;;;9.68;2.67;;;;;;;1.38;100.00;100835.91;5132675;27;20039;-57
2023/02/24 07:59:29;;;;;;;9.77;2.50;;;;;;;1.40;100.00;100834.09;5134059;27;20082;-57
2023/02/24 08:01:58;;;;;;;8.48;2.60;;;;;;;1.42;100.00;100829.72;5132838;28;20049;-57
2023/02/24 08:04:27;;;;;;;11.50;2.22;;;;;;;1.48;100.00;100832.13;5130537;28;20408;-57
2023/02/24 08:07:01;;;;;;;8.55;2.13;;;;;;;1.51;100.00;100824.31;5132748;27;20051;-57
2023/02/24 08:12:21;;;;;;;9.45;2.30;;;;;;;1.62;100.00;100823.13;5132319;27;20046;-57
2023/02/24 08:14:51;;;;;;;7.22;2.17;;;;;;;1.63;100.00;100811.88;5132116;28;20090;-57
2023/02/24 08:17:21;;;;;;;7.70;1.83;;;;;;;1.67;100.00;100813.50;5132201;27;20090;-57
2023/02/24 08:20:20;;;;;;;7.72;2.15;;;;;;;1.75;100.00;100808.94;5131313;27;20057;-57
2023/02/24 08:22:42;;;;;;;7.50;1.83;;;;;;;1.78;100.00;100808.84;5132120;27;20579;-57
2023/02/24 08:25:17;;;;;;;10.20;2.72;;;;;;;1.81;100.00;100801.00;5131927;27;20130;-57
2023/02/24 08:27:54;;;;;;;11.48;2.17;;;;;;;1.83;100.00;100799.19;5131791;27;20055;-57
2023/02/24 08:30:38;;;;;;;10.75;2.25;;;;;;;1.95;100.00;100794.53;5133231;27;20055;-57
2023/02/24 08:33:09;;;;;;;9.60;2.35;;;;;;;1.99;100.00;100794.41;5135924;27;20432;-57
2023/02/24 08:35:43;;;;;;;10.35;2.15;;;;;;;2.02;100.00;100788.28;5135356;27;20039;-57
2023/02/24 08:38:15;;;;;;;12.85;2.30;;;;;;;2.06;100.00;100789.88;5135583;27;20065;-57
2023/02/24 08:40:53;;;;;;;16.35;2.83;;;;;;;2.14;100.00;100782.69;5135534;27;20451;-57
2023/02/24 08:43:31;;;;;;;10.48;2.10;;;;;;;2.22;100.00;100773.81;5135649;27;20047;-57
2023/02/24 08:46:11;;;;;;;11.48;2.70;;;;;;;2.24;100.00;100764.25;5135753;27;20043;-57
2023/02/24 08:48:42;;;;;;;12.27;2.25;;;;;;;2.28;100.00;100763.25;5135749;27;20055;-57
2023/02/24 08:51:16;;;;;;;7.32;2.22;;;;;;;2.35;100.00;100767.34;5135089;27;20066;-57
2023/02/24 08:53:46;;;;;;;9.10;2.38;;;;;;;2.36;100.00;100761.25;5135761;27;20055;-57
2023/02/24 08:56:22;;;;;;;8.52;2.50;;;;;;;2.40;100.00;100759.41;5135911;27;20413;-57
2023/02/24 08:59:04;;;;;;;16.40;2.42;;;;;;;2.50;100.00;100761.66;5135085;27;20493;-57
2023/02/24 09:01:34;;;;;;;7.68;1.88;;;;;;;2.56;100.00;100746.78;5135054;27;20047;-57
2023/02/24 09:04:05;;;;;;;12.13;2.45;;;;;;;2.54;100.00;100742.47;5135356;27;20031;-57
2023/02/24 09:06:39;;;;;;;8.48;2.03;;;;;;;2.59;100.00;100741.47;5134616;27;20486;-57
2023/02/24 09:09:17;;;;;;;12.60;2.15;;;;;;;2.63;100.00;100735.28;5135108;27;20501;-57
2023/02/24 09:11:46;;;;;;;8.45;2.15;;;;;;;2.56;100.00;100732.03;5136878;27;20047;-57
2023/02/24 09:14:19;;;;;;;9.70;2.25;;;;;;;2.59;100.00;100738.88;5135871;27;20501;-57
2023/02/24 09:17:05;;;;;;;10.13;2.10;;;;;;;2.66;100.00;100730.00;5135130;27;20043;-57
2023/02/24 09:22:39;;;;;;;10.73;2.28;;;;;;;2.67;100.00;100710.91;5134325;27;20047;-57
2023/02/24 09:25:22;;;;;;;9.43;2.17;;;;;;;2.76;100.00;100701.97;5135747;27;20045;-57
2023/02/24 09:27:54;;;;;;;9.93;2.25;;;;;;;2.73;100.00;100704.63;5136781;27;20466;-58
2023/02/24 09:30:36;;;;;;;11.53;2.53;;;;;;;2.76;100.00;100700.19;5134462;27;20125;-57
2023/02/24 09:33:16;;;;;;;11.75;2.80;;;;;;;2.76;100.00;100699.34;5134796;27;20039;-57
2023/02/24 09:35:46;;;;;;;10.75;2.42;;;;;;;2.77;100.00;100686.31;5132717;27;20581;-58
2023/02/24 09:38:16;;;;;;;13.98;3.30;;;;;;;2.82;100.00;100691.34;5134407;27;20054;-57
2023/02/24 09:40:51;;;;;;;9.80;2.63;;;;;;;2.78;100.00;100675.03;5134312;27;20066;-57
2023/02/24 09:43:23;;;;;;;11.02;2.53;;;;;;;2.79;100.00;100668.91;5135907;27;20125;-58
2023/02/24 09:45:59;;;;;;;11.18;2.17;;;;;;;2.82;100.00;100658.44;5135207;27;20066;-58
2023/02/24 09:48:42;;;;;;;10.02;2.30;;;;;;;2.91;100.00;100657.25;5134836;27;20074;-57
2023/02/24 09:51:20;;;;;;;11.15;2.50;;;;;;;2.95;100.00;100645.00;5132447;27;20043;-57
2023/02/24 09:53:53;;;;;;;12.73;2.70;;;;;;;2.99;100.00;100642.22;5134872;27;20051;-58
2023/02/24 09:56:35;;;;;;;12.50;3.00;;;;;;;3.04;100.00;100642.91;5135442;27;20055;-58
2023/02/24 09:59:11;;;;;;;16.27;2.97;;;;;;;3.14;100.00;100646.00;5134513;27;20043;-58
2023/02/24 10:02:00;;;;;;;15.00;2.45;;;;;;;3.17;100.00;100637.25;5135953;27;20054;-58
2023/02/24 10:04:52;;;;;;;12.25;2.70;;;;;;;3.27;100.00;100635.97;5136011;27;20043;-58
2023/02/24 10:07:27;;;;;;;9.77;2.72;;;;;;;3.25;100.00;100632.59;5134264;27;20108;-58
2023/02/24 10:10:18;;;;;;;15.55;2.53;;;;;;;3.29;100.00;100628.16;5133658;27;20070;-58
2023/02/24 10:12:51;;;;;;;9.32;2.40;;;;;;;3.27;100.00;100628.19;5132937;27;21058;-57
2023/02/24 10:15:49;;;;;;;11.63;2.47;;;;;;;3.32;100.00;100617.63;5132932;27;20053;-58
2023/02/24 10:18:32;;;;;;;15.27;3.70;;;;;;;3.37;100.00;100615.69;5133441;27;20043;-58
2023/02/24 10:21:14;;;;;;;12.38;2.97;;;;;;;3.45;100.00;100610.19;5133042;27;20126;-58
2023/02/24 10:24:00;;;;;;;11.18;2.70;;;;;;;3.44;100.00;100614.56;5133352;27;20027;-57
2023/02/24 10:26:43;;;;;;;14.48;3.33;;;;;;;3.45;100.00;100611.06;5133450;27;20096;-58
2023/02/24 10:29:42;;;;;;;12.98;2.88;;;;;;;3.47;100.00;100604.03;5133435;27;20132;-57
2023/02/24 10:32:22;;;;;;;13.57;3.03;;;;;;;3.49;100.00;100597.03;5134902;27;20054;-58
2023/02/24 10:34:53;;;;;;;12.65;3.42;;;;;;;3.58;100.00;100605.38;5133021;27;20085;-58
2023/02/24 10:37:25;;;;;;;11.85;3.08;;;;;;;3.56;100.00;100597.63;5133798;27;20111;-58
2023/02/24 10:39:58;;;;;;;14.18;3.22;;;;;;;3.60;100.00;100598.34;5133850;27;20378;-57
2023/02/24 10:42:30;;;;;;;14.07;3.47;;;;;;;3.58;100.00;100601.00;5133383;27;20049;-57
2023/02/24 10:45:13;;;;;;;15.68;2.80;;;;;;;3.62;100.00;100606.94;5133602;27;20047;-57
2023/02/24 10:47:55;;;;;;;9.70;2.70;;;;;;;3.72;100.00;100611.72;5133594;27;20107;-57
2023/02/24 10:50:27;;;;;;;12.18;3.28;;;;;;;3.69;100.00;100608.38;5133501;27;20126;-57
2023/02/24 10:53:24;;;;;;;12.68;2.67;;;;;;;3.73;100.00;100602.97;5133113;27;20129;-57
2023/02/24 10:56:13;;;;;;;13.98;4.10;;;;;;;3.76;100.00;100598.56;5133746;27;20082;-58
2023/02/24 10:58:55;;;;;;;16.20;3.67;;;;;;;3.71;100.00;100590.97;5133567;27;20059;-57
2023/02/24 11:01:42;;;;;;;11.30;4.07;;;;;;;3.72;100.00;100577.03;5133234;27;20118;-57
2023/02/24 11:04:32;;;;;;;12.32;3.63;;;;;;;3.76;100.00;100573.38;5133155;27;20039;-58
2023/02/24 11:07:10;;;;;;;11.77;3.65;;;;;;;3.79;100.00;100570.69;5133019;27;20524;-57
2023/02/24 11:09:51;;;;;;;16.63;3.95;;;;;;;3.81;100.00;100568.84;5133115;27;20045;-57
2023/02/24 11:18:09;;;;;;;14.82;4.22;;;;;;;3.88;100.00;100552.06;5133462;27;20075;-57
2023/02/24 11:20:42;;;;;;;10.80;4.07;;;;;;;3.98;100.00;100547.34;5131281;27;20062;-57
2023/02/24 11:23:23;;;;;;;10.52;4.32;;;;;;;3.98;100.00;100539.53;5132004;27;20090;-58
2023/02/24 11:25:53;;;;;;;14.68;4.28;;;;;;;4.03;100.00;100537.56;5132743;27;20121;-57
2023/02/24 11:28:31;;;;;;;;;;;;;;;4.03;100.00;100534.13;5133309;27;20465;-57
2023/02/24 11:31:09;;;;;;;13.15;4.72;;;;;;;4.06;100.00;100521.84;5131983;27;19919;-58
2023/02/24 11:33:46;;;;;;;14.60;4.97;;;;;;;4.07;100.00;100520.06;5134236;27;20118;-58
2023/02/24 11:36:21;;;;;;;14.93;4.93;;;;;;;4.19;100.00;100513.50;5134364;27;20051;-58
2023/02/24 11:39:03;;;;;;;15.60;5.57;;;;;;;4.16;100.00;100506.66;5131243;27;20043;-58
2023/02/24 11:41:51;;;;;;;18.42;4.95;;;;;;;4.18;100.00;100501.38;5130601;27;20070;-52
2023/02/24 11:44:27;;;;;;;19.38;6.53;;;;;;;4.25;100.00;100504.56;5132594;27;20097;-52
2023/02/24 11:46:59;;;;;;;13.38;5.30;;;;;;;4.26;100.00;100495.84;5130302;27;20070;-47
2023/02/24 11:49:36;;;;;;;15.82;5.82;;;;;;;4.30;100.00;100492.19;5132285;27;20067;-48
2023/02/24 11:52:12;;;;;;;13.85;5.30;;;;;;;4.30;100.00;100495.63;5130018;27;20104;-47
2023/02/24 11:54:47;;;;;;;15.15;5.57;;;;;;;4.27;100.00;100489.72;5129911;27;20047;-47
2023/02/24 11:57:20;;;;;;;16.42;5.43;;;;;;;4.39;100.00;100483.94;5130070;27;20501;-48
2023/02/24 11:59:54;;;;;;;14.00;4.88;;;;;;;4.43;100.00;100474.25;5130158;28;20047;-47
2023/02/24 12:02:32;;;;;;;16.85;5.25;;;;;;;4.38;100.00;100471.88;5129996;27;20082;-46